Time;durP1;ratioP1;P1;durP2;ratioP2;P2;SDS_P1;SDS_P2;PMS_P1;PMS_P2;Temp;Humidity;BMP_temperature;BMP_pressure;BME280_temperature;BME280_humidity;BME280_pressure;Samples;Min_cycle;Max_cycle;Signal;HPM_P1;HPM_P2
2022/05/15 00:01:05;;;;;;;2.35;2.10;;;;;;;;;;5096715;28;20198;-59
2022/05/15 00:03:32;;;;;;;2.50;2.30;;;;;;;;;;5097456;28;20214;-59
2022/05/15 00:06:01;;;;;;;2.60;2.40;;;;;;;;;;5097836;28;20195;-59
2022/05/15 00:08:29;;;;;;;2.47;2.28;;;;;;;;;;5098389;28;20594;-59
2022/05/15 00:10:57;;;;;;;2.13;1.92;;;;;;;;;;5098108;28;20234;-59
2022/05/15 00:13:26;;;;;;;2.97;2.40;;;;;;;;;;5097725;28;20565;-59
2022/05/15 00:15:54;;;;;;;3.20;2.30;;;;;;;;;;5097544;28;20211;-59
2022/05/15 00:18:24;;;;;;;2.40;2.20;;;;;;;;;;5096912;28;20227;-59
2022/05/15 00:20:51;;;;;;;3.30;2.28;;;;;;;;;;5098014;28;20267;-59
2022/05/15 00:23:20;;;;;;;2.40;2.20;;;;;;;;;;5097746;28;20230;-59
2022/05/15 00:25:47;;;;;;;2.85;2.33;;;;;;;;;;5097825;28;20195;-59
2022/05/15 00:28:15;;;;;;;2.50;2.30;;;;;;;;;;5097321;28;20204;-59
2022/05/15 00:30:43;;;;;;;2.45;2.25;;;;;;;;;;5110215;28;20199;-59
2022/05/15 00:33:11;;;;;;;2.55;2.35;;;;;;;;;;5117077;28;20202;-60
2022/05/15 00:35:40;;;;;;;2.38;2.17;;;;;;;;;;5117716;28;20578;-59
2022/05/15 00:38:09;;;;;;;2.47;2.28;;;;;;;;;;5117835;28;20223;-61
2022/05/15 00:40:38;;;;;;;2.58;2.30;;;;;;;;;;5118063;28;20210;-59
2022/05/15 00:43:06;;;;;;;2.30;2.10;;;;;;;;;;5110339;28;20223;-59
2022/05/15 00:45:33;;;;;;;2.42;2.22;;;;;;;;;;5096804;28;20261;-59
2022/05/15 00:48:01;;;;;;;3.00;2.03;;;;;;;;;;5098755;28;20199;-59
2022/05/15 00:50:31;;;;;;;2.30;2.17;;;;;;;;;;5100366;28;20214;-59
2022/05/15 00:53:02;;;;;;;2.70;2.50;;;;;;;;;;5099028;28;20218;-59
2022/05/15 00:55:32;;;;;;;2.85;2.55;;;;;;;;;;5100020;28;20203;-59
2022/05/15 00:58:01;;;;;;;2.45;2.25;;;;;;;;;;5099327;28;20231;-59
2022/05/15 01:00:30;;;;;;;2.35;2.15;;;;;;;;;;5099728;28;20245;-59
2022/05/15 01:03:01;;;;;;;2.70;2.33;;;;;;;;;;5100212;28;20286;-59
2022/05/15 01:05:28;;;;;;;2.80;2.40;;;;;;;;;;5099803;28;20583;-59
2022/05/15 01:07:56;;;;;;;3.40;2.50;;;;;;;;;;5099285;28;20196;-58
2022/05/15 01:10:25;;;;;;;2.60;2.40;;;;;;;;;;5098352;28;20337;-58
2022/05/15 01:12:53;;;;;;;3.47;2.42;;;;;;;;;;5098774;28;20282;-59
2022/05/15 01:15:22;;;;;;;2.58;2.30;;;;;;;;;;5099200;28;20264;-59
2022/05/15 01:17:50;;;;;;;2.30;2.10;;;;;;;;;;5099493;28;20254;-58
2022/05/15 01:20:19;;;;;;;2.67;2.38;;;;;;;;;;5099745;28;20586;-58
2022/05/15 01:22:48;;;;;;;4.25;2.40;;;;;;;;;;5099420;28;20215;-58
2022/05/15 01:25:16;;;;;;;3.03;2.15;;;;;;;;;;5098455;28;20207;-58
2022/05/15 01:27:47;;;;;;;2.20;2.00;;;;;;;;;;5098372;28;20192;-58
2022/05/15 01:30:14;;;;;;;2.55;2.25;;;;;;;;;;5099403;28;20200;-59
2022/05/15 01:32:42;;;;;;;2.30;2.10;;;;;;;;;;5098636;28;20207;-58
2022/05/15 01:35:10;;;;;;;3.33;2.30;;;;;;;;;;5099151;28;20196;-58
2022/05/15 01:37:38;;;;;;;2.22;2.03;;;;;;;;;;5099584;28;20230;-58
2022/05/15 01:40:08;;;;;;;2.75;2.30;;;;;;;;;;5099629;28;20215;-59
2022/05/15 01:42:35;;;;;;;2.30;2.10;;;;;;;;;;5059218;28;1216670;-59
2022/05/15 01:45:03;;;;;;;2.40;2.20;;;;;;;;;;5120295;28;20202;-58
2022/05/15 01:47:30;;;;;;;2.95;2.38;;;;;;;;;;5120509;28;20195;-58
2022/05/15 01:49:57;;;;;;;2.60;2.40;;;;;;;;;;5120998;28;20573;-58
2022/05/15 01:52:25;;;;;;;2.00;1.90;;;;;;;;;;5119454;28;20290;-59
2022/05/15 01:54:52;;;;;;;2.67;2.38;;;;;;;;;;5120663;28;20566;-58
2022/05/15 01:57:21;;;;;;;2.50;2.30;;;;;;;;;;5119696;28;20214;-58
2022/05/15 01:59:48;;;;;;;2.00;1.90;;;;;;;;;;5120491;28;20203;-58
2022/05/15 02:02:16;;;;;;;2.55;2.35;;;;;;;;;;5120863;28;20231;-58
2022/05/15 02:04:44;;;;;;;2.67;2.10;;;;;;;;;;5119722;28;20214;-58
2022/05/15 02:07:11;;;;;;;2.50;2.15;;;;;;;;;;5120123;28;20202;-58
2022/05/15 02:09:39;;;;;;;2.78;2.45;;;;;;;;;;5120785;28;20246;-59
2022/05/15 02:12:06;;;;;;;2.30;2.10;;;;;;;;;;5120046;28;20297;-58
2022/05/15 02:14:35;;;;;;;2.22;2.10;;;;;;;;;;5120199;28;20613;-59
2022/05/15 02:17:03;;;;;;;2.40;2.20;;;;;;;;;;5120147;28;20207;-58
2022/05/15 02:19:30;;;;;;;2.72;2.15;;;;;;;;;;5119978;28;20520;-58
2022/05/15 02:21:58;;;;;;;2.47;2.28;;;;;;;;;;5120376;28;20199;-58
2022/05/15 02:24:25;;;;;;;3.05;2.20;;;;;;;;;;5119580;28;20203;-58
2022/05/15 02:26:53;;;;;;;2.50;2.30;;;;;;;;;;5119195;28;20553;-58
2022/05/15 02:29:20;;;;;;;2.60;2.40;;;;;;;;;;5118677;28;20495;-59
2022/05/15 02:31:49;;;;;;;2.42;2.22;;;;;;;;;;5118852;28;20206;-58
2022/05/15 02:34:16;;;;;;;2.42;2.22;;;;;;;;;;5118558;28;20293;-58
2022/05/15 02:36:44;;;;;;;2.75;2.40;;;;;;;;;;5119141;28;20234;-60
2022/05/15 02:39:11;;;;;;;2.40;2.22;;;;;;;;;;5119533;28;20242;-60
2022/05/15 02:41:39;;;;;;;2.63;2.42;;;;;;;;;;5118566;28;20246;-60
2022/05/15 02:44:06;;;;;;;2.88;2.17;;;;;;;;;;5117929;28;20235;-58
2022/05/15 02:46:34;;;;;;;2.13;2.03;;;;;;;;;;5119305;28;20217;-60
2022/05/15 02:51:47;;;;;;;2.63;2.42;;;;;;;;;;5118964;28;20590;-58
2022/05/15 02:54:14;;;;;;;2.22;1.90;;;;;;;;;;5118623;28;20497;-60
2022/05/15 02:56:42;;;;;;;2.75;2.55;;;;;;;;;;5119271;28;20203;-58
2022/05/15 02:59:09;;;;;;;2.20;2.00;;;;;;;;;;5118568;28;20223;-59
2022/05/15 03:01:37;;;;;;;2.70;2.30;;;;;;;;;;5118790;28;20283;-58
2022/05/15 03:04:06;;;;;;;2.47;2.28;;;;;;;;;;5104103;28;20208;-59
2022/05/15 03:06:34;;;;;;;2.55;2.22;;;;;;;;;;5118120;28;20221;-58
2022/05/15 03:09:01;;;;;;;2.10;2.00;;;;;;;;;;5118792;28;20199;-59
2022/05/15 03:11:31;;;;;;;2.40;2.20;;;;;;;;;;5118566;28;20214;-58
2022/05/15 03:13:58;;;;;;;2.40;2.20;;;;;;;;;;5119185;28;20213;-59
2022/05/15 03:16:28;;;;;;;2.25;2.05;;;;;;;;;;5118426;28;20203;-59
2022/05/15 03:18:55;;;;;;;2.40;2.20;;;;;;;;;;5119101;28;20308;-58
2022/05/15 03:21:30;;;;;;;2.30;2.10;;;;;;;;;;5117094;28;20210;-60
2022/05/15 03:23:58;;;;;;;2.55;2.28;;;;;;;;;;5119107;28;20217;-60
2022/05/15 03:26:26;;;;;;;2.13;1.92;;;;;;;;;;5118745;28;20306;-60
2022/05/15 03:28:54;;;;;;;2.92;2.13;;;;;;;;;;5118999;28;20206;-58
2022/05/15 03:31:21;;;;;;;2.42;2.22;;;;;;;;;;5118499;28;20202;-59
2022/05/15 03:33:49;;;;;;;2.10;2.00;;;;;;;;;;5118709;28;20487;-58
2022/05/15 03:36:16;;;;;;;2.42;2.22;;;;;;;;;;5118221;28;20211;-60
2022/05/15 03:38:46;;;;;;;2.35;2.15;;;;;;;;;;5118277;28;20227;-58
2022/05/15 03:41:14;;;;;;;2.60;2.40;;;;;;;;;;5118043;28;20207;-58
2022/05/15 03:43:42;;;;;;;2.35;2.20;;;;;;;;;;5118353;28;20254;-58
2022/05/15 03:46:09;;;;;;;2.80;2.60;;;;;;;;;;5118358;28;20203;-60
2022/05/15 03:48:36;;;;;;;2.28;2.10;;;;;;;;;;5118646;28;20194;-58
2022/05/15 03:51:04;;;;;;;2.30;2.05;;;;;;;;;;5118371;28;20210;-58
2022/05/15 03:53:32;;;;;;;2.55;2.35;;;;;;;;;;5117531;28;20210;-58
2022/05/15 03:56:01;;;;;;;2.50;2.30;;;;;;;;;;5117795;28;20198;-58
2022/05/15 03:58:31;;;;;;;2.17;2.00;;;;;;;;;;5117123;28;20227;-60
2022/05/15 04:00:59;;;;;;;2.25;2.05;;;;;;;;;;5118208;28;20207;-60
2022/05/15 04:03:26;;;;;;;2.50;2.30;;;;;;;;;;5117862;28;20397;-60
2022/05/15 04:05:54;;;;;;;2.50;2.30;;;;;;;;;;5117659;28;20214;-59
2022/05/15 04:08:22;;;;;;;2.50;2.30;;;;;;;;;;5117717;28;20199;-58
2022/05/15 04:10:49;;;;;;;2.40;2.20;;;;;;;;;;5118484;28;20202;-58
2022/05/15 04:13:18;;;;;;;2.47;2.28;;;;;;;;;;5117102;28;20562;-59
2022/05/15 04:15:46;;;;;;;2.08;1.98;;;;;;;;;;5117380;28;20211;-59
2022/05/15 04:18:13;;;;;;;2.13;1.92;;;;;;;;;;5116732;28;20218;-58
2022/05/15 04:20:42;;;;;;;2.80;2.50;;;;;;;;;;5117469;28;20423;-58
2022/05/15 04:23:09;;;;;;;2.20;2.10;;;;;;;;;;5117448;28;20203;-60
2022/05/15 04:25:36;;;;;;;4.72;2.75;;;;;;;;;;5117616;28;20210;-59
2022/05/15 04:28:04;;;;;;;2.47;2.20;;;;;;;;;;5117717;28;20209;-58
2022/05/15 04:30:32;;;;;;;2.38;2.28;;;;;;;;;;5116894;28;20218;-59
2022/05/15 04:33:00;;;;;;;2.10;2.00;;;;;;;;;;5115699;28;20590;-58
2022/05/15 04:35:28;;;;;;;3.00;2.28;;;;;;;;;;5116388;28;20473;-58
2022/05/15 04:37:55;;;;;;;2.80;2.60;;;;;;;;;;5116487;28;20281;-58
2022/05/15 04:40:23;;;;;;;2.60;2.40;;;;;;;;;;5116360;28;20202;-60
2022/05/15 04:42:50;;;;;;;2.50;2.30;;;;;;;;;;5116256;28;20239;-61
2022/05/15 04:45:18;;;;;;;2.53;2.33;;;;;;;;;;5117216;28;20203;-60
2022/05/15 04:47:47;;;;;;;2.60;2.40;;;;;;;;;;5117423;28;20203;-61
2022/05/15 04:50:16;;;;;;;2.60;2.40;;;;;;;;;;5116558;28;20473;-60
2022/05/15 04:52:43;;;;;;;3.03;2.30;;;;;;;;;;5117522;28;20230;-61
2022/05/15 04:55:11;;;;;;;2.50;2.30;;;;;;;;;;5117181;28;20298;-60
2022/05/15 04:57:39;;;;;;;2.45;2.25;;;;;;;;;;5117819;28;20272;-60
2022/05/15 05:00:08;;;;;;;2.80;2.60;;;;;;;;;;5117836;28;20203;-60
2022/05/15 05:02:36;;;;;;;2.70;2.50;;;;;;;;;;5117933;28;20574;-60
2022/05/15 05:05:04;;;;;;;2.58;2.38;;;;;;;;;;5117239;28;20503;-60
2022/05/15 05:07:32;;;;;;;2.53;2.33;;;;;;;;;;5116854;28;20218;-60
2022/05/15 05:09:59;;;;;;;2.85;2.60;;;;;;;;;;5116336;28;20199;-60
2022/05/15 05:12:27;;;;;;;2.80;2.60;;;;;;;;;;5116371;28;20231;-61
2022/05/15 05:14:54;;;;;;;2.97;2.67;;;;;;;;;;5117188;28;20493;-60
2022/05/15 05:17:22;;;;;;;2.40;2.20;;;;;;;;;;5117704;28;20448;-60
2022/05/15 05:19:49;;;;;;;2.72;2.53;;;;;;;;;;5117182;28;20234;-60
2022/05/15 05:22:18;;;;;;;2.90;2.70;;;;;;;;;;5117296;28;20214;-61
2022/05/15 05:24:45;;;;;;;3.00;2.70;;;;;;;;;;5117164;28;20203;-61
2022/05/15 05:27:13;;;;;;;3.13;2.92;;;;;;;;;;5116904;28;20203;-60
2022/05/15 05:29:40;;;;;;;3.10;2.90;;;;;;;;;;5116710;28;20213;-60
2022/05/15 05:32:08;;;;;;;3.17;2.90;;;;;;;;;;5117826;28;20471;-60
2022/05/15 05:34:35;;;;;;;3.13;2.90;;;;;;;;;;5120937;28;20491;-60
2022/05/15 05:37:03;;;;;;;3.40;2.95;;;;;;;;;;5121370;28;20214;-60
2022/05/15 05:39:32;;;;;;;3.70;3.40;;;;;;;;;;5120900;28;20227;-60
2022/05/15 05:41:59;;;;;;;3.10;2.72;;;;;;;;;;5120406;28;20210;-60
2022/05/15 05:44:27;;;;;;;3.25;2.80;;;;;;;;;;5119737;28;20302;-60
2022/05/15 05:46:54;;;;;;;3.05;2.85;;;;;;;;;;5120356;28;20214;-61
2022/05/15 05:49:21;;;;;;;3.30;3.00;;;;;;;;;;5120397;28;20202;-59
2022/05/15 05:51:49;;;;;;;3.00;2.80;;;;;;;;;;5120541;28;20202;-60
2022/05/15 05:54:16;;;;;;;2.85;2.65;;;;;;;;;;5120546;28;20211;-60
2022/05/15 05:56:45;;;;;;;3.53;2.92;;;;;;;;;;5119975;28;20574;-60
2022/05/15 05:59:13;;;;;;;3.58;3.28;;;;;;;;;;5120168;28;20222;-60
2022/05/15 06:01:40;;;;;;;3.53;3.28;;;;;;;;;;5119745;28;20207;-60
2022/05/15 06:06:52;;;;;;;3.28;3.08;;;;;;;;;;5098930;28;20284;-61
2022/05/15 06:09:20;;;;;;;3.00;2.78;;;;;;;;;;5098828;28;20210;-60
2022/05/15 06:11:49;;;;;;;3.47;3.17;;;;;;;;;;5099367;28;20204;-60
2022/05/15 06:14:16;;;;;;;3.92;3.50;;;;;;;;;;5098507;28;20204;-60
2022/05/15 06:16:43;;;;;;;2.95;2.72;;;;;;;;;;5098787;28;20246;-61
2022/05/15 06:19:11;;;;;;;3.17;2.85;;;;;;;;;;5098726;28;20242;-59
2022/05/15 06:21:38;;;;;;;3.80;3.10;;;;;;;;;;5098375;28;20204;-61
2022/05/15 06:24:06;;;;;;;3.20;3.00;;;;;;;;;;5099304;28;20211;-60
2022/05/15 06:26:33;;;;;;;3.20;2.85;;;;;;;;;;5098567;28;20494;-58
2022/05/15 06:29:02;;;;;;;3.17;2.88;;;;;;;;;;5098213;28;20199;-58
2022/05/15 06:31:29;;;;;;;3.17;2.92;;;;;;;;;;5098950;28;20204;-59
2022/05/15 06:33:57;;;;;;;4.38;3.20;;;;;;;;;;5098521;28;20211;-59
2022/05/15 06:36:25;;;;;;;3.95;3.30;;;;;;;;;;5098118;28;20195;-59
2022/05/15 06:38:53;;;;;;;3.47;3.17;;;;;;;;;;5098468;28;20223;-59
2022/05/15 06:41:20;;;;;;;3.13;2.92;;;;;;;;;;5098449;28;20215;-60
2022/05/15 06:43:48;;;;;;;3.33;3.03;;;;;;;;;;5097063;28;20243;-60
2022/05/15 06:46:16;;;;;;;3.38;3.08;;;;;;;;;;5098199;28;20560;-58
2022/05/15 06:48:44;;;;;;;3.83;3.38;;;;;;;;;;5098889;28;20207;-59
2022/05/15 06:51:16;;;;;;;6.50;3.85;;;;;;;;;;5098095;28;20270;-60
2022/05/15 06:53:43;;;;;;;4.07;3.50;;;;;;;;;;5097536;28;20278;-61
2022/05/15 06:58:55;;;;;;;3.50;3.20;;;;;;;;;;5097836;28;20230;-59
2022/05/15 07:01:24;;;;;;;3.30;3.10;;;;;;;;;;5098211;28;20222;-58
2022/05/15 07:03:52;;;;;;;3.90;3.50;;;;;;;;;;5098039;28;20214;-59
2022/05/15 07:06:19;;;;;;;3.50;3.10;;;;;;;;;;5098077;28;20204;-60
2022/05/15 07:08:47;;;;;;;3.90;3.20;;;;;;;;;;5098469;28;20214;-60
2022/05/15 07:11:14;;;;;;;3.58;3.03;;;;;;;;;;5097041;28;20667;-60
2022/05/15 07:13:41;;;;;;;6.07;3.35;;;;;;;;;;5097539;28;20210;-61
2022/05/15 07:16:10;;;;;;;3.55;3.25;;;;;;;;;;5096495;28;20214;-60
2022/05/15 07:18:39;;;;;;;3.78;3.47;;;;;;;;;;5096576;28;20324;-58
2022/05/15 07:21:06;;;;;;;4.68;3.70;;;;;;;;;;5092697;28;20203;-59
2022/05/15 07:23:34;;;;;;;3.88;3.53;;;;;;;;;;5083010;28;20204;-58
2022/05/15 07:26:02;;;;;;;4.82;3.63;;;;;;;;;;5077931;28;20204;-60
2022/05/15 07:28:30;;;;;;;3.55;3.22;;;;;;;;;;5077866;28;20212;-59
2022/05/15 07:30:58;;;;;;;5.82;3.75;;;;;;;;;;5077588;28;20204;-58
2022/05/15 07:33:26;;;;;;;4.15;3.33;;;;;;;;;;5075318;28;20204;-59
2022/05/15 07:35:56;;;;;;;4.30;3.35;;;;;;;;;;5069883;28;20204;-58
2022/05/15 07:38:23;;;;;;;4.38;3.35;;;;;;;;;;5077023;28;20245;-59
2022/05/15 07:40:52;;;;;;;3.83;3.42;;;;;;;;;;5076754;28;20623;-58
2022/05/15 07:43:19;;;;;;;4.43;3.20;;;;;;;;;;5088396;28;20570;-58
2022/05/15 07:45:47;;;;;;;7.13;3.67;;;;;;;;;;5116632;28;20203;-58
2022/05/15 07:48:14;;;;;;;5.65;4.05;;;;;;;;;;5118135;28;20207;-58
2022/05/15 07:50:41;;;;;;;5.28;3.65;;;;;;;;;;5118756;28;20210;-59
2022/05/15 07:53:10;;;;;;;5.07;3.83;;;;;;;;;;5117475;28;20195;-60
2022/05/15 07:55:38;;;;;;;4.43;3.35;;;;;;;;;;5117866;28;20203;-58
2022/05/15 07:58:05;;;;;;;4.85;3.70;;;;;;;;;;5118124;28;20210;-60
2022/05/15 08:00:33;;;;;;;5.75;3.60;;;;;;;;;;5117774;28;20277;-59
2022/05/15 08:03:04;;;;;;;5.95;3.50;;;;;;;;;;5117945;28;20629;-60
2022/05/15 08:08:18;;;;;;;3.70;3.10;;;;;;;;;;5116994;28;20194;-60
2022/05/15 08:10:45;;;;;;;4.47;3.40;;;;;;;;;;5098593;28;20257;-58
2022/05/15 08:13:14;;;;;;;5.05;3.35;;;;;;;;;;5097052;28;20204;-58
2022/05/15 08:15:42;;;;;;;5.25;3.47;;;;;;;;;;5096702;28;20199;-60
2022/05/15 08:23:44;;;;;;;5.43;3.47;;;;;;;;;;5095810;28;20282;-58
2022/05/15 08:26:12;;;;;;;3.67;2.80;;;;;;;;;;5096338;28;20264;-58
2022/05/15 08:28:39;;;;;;;4.38;3.05;;;;;;;;;;5095372;28;20199;-59
2022/05/15 08:31:08;;;;;;;4.28;2.95;;;;;;;;;;5095975;28;20209;-59
2022/05/15 08:33:35;;;;;;;5.75;3.35;;;;;;;;;;5096593;28;20214;-58
2022/05/15 08:36:03;;;;;;;4.45;3.03;;;;;;;;;;5096399;28;20210;-58
2022/05/15 08:38:31;;;;;;;4.03;3.15;;;;;;;;;;5095945;28;20217;-59
2022/05/15 08:41:02;;;;;;;7.70;3.63;;;;;;;;;;5096269;28;20227;-58
2022/05/15 08:43:34;;;;;;;4.78;3.20;;;;;;;;;;5095090;28;20227;-60
2022/05/15 08:46:04;;;;;;;7.47;3.47;;;;;;;;;;5096344;28;20563;-59
2022/05/15 08:48:33;;;;;;;6.80;3.17;;;;;;;;;;5096505;28;20685;-58
2022/05/15 08:51:02;;;;;;;5.93;3.08;;;;;;;;;;5096370;28;20200;-58
2022/05/15 08:53:31;;;;;;;4.57;3.03;;;;;;;;;;5096664;28;20203;-60
2022/05/15 08:56:01;;;;;;;5.00;3.08;;;;;;;;;;5095616;28;20200;-58
2022/05/15 08:58:31;;;;;;;4.70;3.03;;;;;;;;;;5096493;28;20484;-61
2022/05/15 09:00:58;;;;;;;3.30;2.92;;;;;;;;;;5095296;28;20226;-60
2022/05/15 09:03:26;;;;;;;4.53;3.35;;;;;;;;;;5096585;28;20204;-58
2022/05/15 09:05:56;;;;;;;4.32;2.60;;;;;;;;;;5078752;28;20211;-58
2022/05/15 09:08:36;;;;;;;3.30;2.58;;;;;;;;;;5077613;28;20208;-58
2022/05/15 09:11:07;;;;;;;4.57;2.85;;;;;;;;;;5080019;28;20240;-58
2022/05/15 09:13:38;;;;;;;5.57;3.08;;;;;;;;;;5080121;28;20208;-60
2022/05/15 09:16:08;;;;;;;5.78;3.28;;;;;;;;;;5079752;28;20699;-58
2022/05/15 09:18:37;;;;;;;4.53;2.80;;;;;;;;;;5078954;28;20241;-58
2022/05/15 09:21:08;;;;;;;4.70;2.63;;;;;;;;;;5079359;28;20323;-60
2022/05/15 09:23:37;;;;;;;3.45;3.10;;;;;;;;;;5080008;28;20215;-59
2022/05/15 09:26:16;;;;;;;5.65;3.47;;;;;;;;;;5079373;28;20227;-60
2022/05/15 09:28:44;;;;;;;4.20;2.85;;;;;;;;;;5079232;28;20211;-60
2022/05/15 09:31:21;;;;;;;4.38;2.42;;;;;;;;;;5078664;28;20232;-60
2022/05/15 09:33:53;;;;;;;4.00;2.72;;;;;;;;;;5076319;28;20192;-60
2022/05/15 09:36:24;;;;;;;3.42;2.65;;;;;;;;;;5079428;28;20211;-60
2022/05/15 09:38:59;;;;;;;5.30;3.25;;;;;;;;;;5078272;28;20203;-60
2022/05/15 09:44:24;;;;;;;3.05;2.58;;;;;;;;;;5078131;28;20235;-60
2022/05/15 09:46:57;;;;;;;3.67;2.33;;;;;;;;;;5078101;28;20200;-60
2022/05/15 09:49:28;;;;;;;4.70;2.72;;;;;;;;;;5078261;28;20219;-61
2022/05/15 09:51:57;;;;;;;5.20;2.60;;;;;;;;;;5077794;28;20204;-60
2022/05/15 09:54:32;;;;;;;4.10;2.65;;;;;;;;;;5077909;28;20204;-60
2022/05/15 09:57:11;;;;;;;4.25;2.80;;;;;;;;;;5077577;28;20210;-60
2022/05/15 09:59:39;;;;;;;2.83;2.47;;;;;;;;;;5083780;28;20285;-60
2022/05/15 10:02:09;;;;;;;3.00;2.67;;;;;;;;;;5097547;28;20205;-60
2022/05/15 10:04:39;;;;;;;2.67;2.30;;;;;;;;;;5098548;28;20235;-60
2022/05/15 10:07:09;;;;;;;3.20;2.40;;;;;;;;;;5097916;28;20203;-60
2022/05/15 10:09:38;;;;;;;4.93;3.00;;;;;;;;;;5098220;28;20226;-60
2022/05/15 10:12:06;;;;;;;4.00;2.50;;;;;;;;;;5098399;28;20210;-60
2022/05/15 10:14:39;;;;;;;4.50;2.63;;;;;;;;;;5098313;28;20204;-61
2022/05/15 10:17:07;;;;;;;4.43;2.60;;;;;;;;;;5098881;28;20282;-61
2022/05/15 10:19:40;;;;;;;3.05;2.45;;;;;;;;;;5097756;28;20214;-60
2022/05/15 10:22:22;;;;;;;2.75;2.42;;;;;;;;;;5098444;28;20261;-61
2022/05/15 10:24:50;;;;;;;3.60;2.60;;;;;;;;;;5097469;28;20214;-60
2022/05/15 10:27:22;;;;;;;3.92;2.90;;;;;;;;;;5096409;28;20206;-60
2022/05/15 10:29:53;;;;;;;3.83;2.53;;;;;;;;;;5096499;28;20264;-60
2022/05/15 10:32:31;;;;;;;5.85;2.58;;;;;;;;;;5095543;28;20591;-60
2022/05/15 10:34:59;;;;;;;5.38;2.70;;;;;;;;;;5096983;28;20203;-60
2022/05/15 10:37:44;;;;;;;2.65;2.40;;;;;;;;;;5096496;28;20230;-60
2022/05/15 10:40:20;;;;;;;4.13;2.50;;;;;;;;;;5095359;28;20240;-60
2022/05/15 10:42:58;;;;;;;4.35;2.55;;;;;;;;;;5095685;28;20629;-60
2022/05/15 10:45:33;;;;;;;3.70;2.50;;;;;;;;;;5095563;28;20577;-60
2022/05/15 10:48:06;;;;;;;3.80;2.78;;;;;;;;;;5096678;28;20217;-60
2022/05/15 10:50:39;;;;;;;4.35;2.47;;;;;;;;;;5096467;28;20203;-60
2022/05/15 10:58:54;;;;;;;4.80;3.00;;;;;;;;;;5096128;28;20453;-60
2022/05/15 11:01:26;;;;;;;4.93;3.00;;;;;;;;;;5095953;28;20235;-60
2022/05/15 11:04:00;;;;;;;5.03;2.58;;;;;;;;;;5095660;28;20210;-60
2022/05/15 11:06:33;;;;;;;4.75;2.58;;;;;;;;;;5096457;28;20196;-60
2022/05/15 11:09:06;;;;;;;3.92;2.50;;;;;;;;;;5097016;28;20594;-60
2022/05/15 11:11:41;;;;;;;4.18;2.58;;;;;;;;;;5095375;28;20191;-60
2022/05/15 11:14:15;;;;;;;3.08;2.58;;;;;;;;;;5096146;28;20191;-60
2022/05/15 11:16:45;;;;;;;3.25;2.60;;;;;;;;;;5096145;28;20221;-60
2022/05/15 11:19:27;;;;;;;3.88;2.50;;;;;;;;;;5095701;28;20195;-60
2022/05/15 11:21:57;;;;;;;3.67;2.50;;;;;;;;;;5094882;28;20230;-60
2022/05/15 11:24:31;;;;;;;3.20;2.67;;;;;;;;;;5094518;28;20211;-60
2022/05/15 11:27:01;;;;;;;3.25;2.67;;;;;;;;;;5095453;28;20207;-60
2022/05/15 11:29:29;;;;;;;2.97;2.60;;;;;;;;;;5095885;28;20203;-60
2022/05/15 11:31:59;;;;;;;4.25;2.70;;;;;;;;;;5095206;28;20469;-60
2022/05/15 11:34:41;;;;;;;4.30;2.63;;;;;;;;;;5094932;28;20480;-60
2022/05/15 11:37:26;;;;;;;3.90;2.47;;;;;;;;;;5094798;28;20199;-60
2022/05/15 11:39:59;;;;;;;5.03;2.50;;;;;;;;;;5094869;28;20204;-60
2022/05/15 11:42:28;;;;;;;3.83;2.60;;;;;;;;;;5093502;28;20715;-60
2022/05/15 11:44:56;;;;;;;3.47;2.63;;;;;;;;;;5096044;28;20219;-60
2022/05/15 11:47:31;;;;;;;2.83;2.35;;;;;;;;;;5094723;28;20238;-60
2022/05/15 11:50:00;;;;;;;4.50;2.35;;;;;;;;;;5095313;28;20210;-60
2022/05/15 11:52:38;;;;;;;3.25;2.28;;;;;;;;;;5094352;28;20203;-60
2022/05/15 11:55:24;;;;;;;3.17;2.20;;;;;;;;;;5094706;28;20617;-60
2022/05/15 11:57:51;;;;;;;3.55;2.17;;;;;;;;;;5094484;28;20199;-60
2022/05/15 12:00:23;;;;;;;2.97;2.40;;;;;;;;;;5095129;28;20251;-60
2022/05/15 12:02:55;;;;;;;4.80;2.85;;;;;;;;;;5094324;28;20321;-61
2022/05/15 12:05:25;;;;;;;6.18;2.72;;;;;;;;;;5094177;28;20204;-60
2022/05/15 12:07:54;;;;;;;3.75;2.40;;;;;;;;;;5095035;28;20449;-60
2022/05/15 12:10:22;;;;;;;3.20;2.40;;;;;;;;;;5093764;28;20670;-60
2022/05/15 12:13:01;;;;;;;4.03;2.50;;;;;;;;;;5093958;28;20212;-60
2022/05/15 12:15:37;;;;;;;6.65;2.75;;;;;;;;;;5095116;28;20207;-60
2022/05/15 12:18:17;;;;;;;3.42;2.30;;;;;;;;;;5095097;28;20203;-60
2022/05/15 12:20:47;;;;;;;4.38;2.20;;;;;;;;;;5094824;28;20503;-60
2022/05/15 12:23:17;;;;;;;3.65;2.60;;;;;;;;;;5094212;28;20214;-60
2022/05/15 12:25:52;;;;;;;4.35;2.42;;;;;;;;;;5094329;28;20257;-60
2022/05/15 12:31:05;;;;;;;3.63;2.30;;;;;;;;;;5081434;28;20206;-60
2022/05/15 12:33:40;;;;;;;3.38;2.28;;;;;;;;;;5094643;28;20302;-60
2022/05/15 12:36:11;;;;;;;4.28;2.40;;;;;;;;;;5094306;28;20586;-60
2022/05/15 12:38:41;;;;;;;5.20;2.35;;;;;;;;;;5093638;28;20471;-60
2022/05/15 12:41:10;;;;;;;2.88;2.20;;;;;;;;;;5094022;28;20230;-60
2022/05/15 12:43:41;;;;;;;2.83;2.30;;;;;;;;;;5097927;28;20626;-60
2022/05/15 12:46:08;;;;;;;3.17;2.22;;;;;;;;;;5098193;28;20204;-60
2022/05/15 12:48:39;;;;;;;2.90;2.15;;;;;;;;;;5097080;28;20506;-61
2022/05/15 12:51:09;;;;;;;3.97;2.30;;;;;;;;;;5096890;28;20575;-60
2022/05/15 12:53:39;;;;;;;3.90;2.20;;;;;;;;;;5097744;28;20231;-60
2022/05/15 12:56:11;;;;;;;2.90;2.00;;;;;;;;;;5097700;28;20204;-60
2022/05/15 12:58:39;;;;;;;3.20;2.10;;;;;;;;;;5099215;28;20578;-60
2022/05/15 13:01:06;;;;;;;4.00;2.20;;;;;;;;;;5098721;28;20289;-60
2022/05/15 13:03:35;;;;;;;2.33;2.13;;;;;;;;;;5097363;28;20214;-61
2022/05/15 13:06:06;;;;;;;3.65;2.20;;;;;;;;;;5097705;28;20265;-60
2022/05/15 13:08:49;;;;;;;3.20;2.13;;;;;;;;;;5099117;28;20214;-60
2022/05/15 13:11:20;;;;;;;3.25;2.20;;;;;;;;;;5096756;28;20295;-60
2022/05/15 13:13:48;;;;;;;3.67;2.20;;;;;;;;;;5099070;28;20215;-60
2022/05/15 13:16:18;;;;;;;3.17;2.15;;;;;;;;;;5098590;28;20204;-61
2022/05/15 13:18:47;;;;;;;3.58;2.33;;;;;;;;;;5098803;28;20477;-59
2022/05/15 13:21:21;;;;;;;2.45;2.00;;;;;;;;;;5098313;28;20227;-60
2022/05/15 13:23:49;;;;;;;2.28;1.98;;;;;;;;;;5099734;28;20198;-60
2022/05/15 13:26:23;;;;;;;2.67;1.90;;;;;;;;;;5099174;28;20207;-61
2022/05/15 13:28:51;;;;;;;4.00;2.47;;;;;;;;;;5098804;28;20509;-60
2022/05/15 13:31:18;;;;;;;3.78;2.47;;;;;;;;;;5098288;28;20199;-60
2022/05/15 13:33:47;;;;;;;4.18;2.20;;;;;;;;;;5098747;28;20207;-60
2022/05/15 13:36:17;;;;;;;3.58;2.30;;;;;;;;;;5097756;28;20629;-60
2022/05/15 13:44:18;;;;;;;3.95;2.20;;;;;;;;;;5097088;28;20226;-60
2022/05/15 13:47:00;;;;;;;2.97;2.20;;;;;;;;;;5098137;28;20272;-60
2022/05/15 13:49:37;;;;;;;2.97;2.17;;;;;;;;;;5098359;28;20195;-60
2022/05/15 13:52:19;;;;;;;3.50;2.28;;;;;;;;;;5098631;28;20484;-60
2022/05/15 13:54:48;;;;;;;4.00;2.47;;;;;;;;;;5096742;28;20211;-60
2022/05/15 13:57:16;;;;;;;3.33;2.25;;;;;;;;;;5097500;28;20210;-60
2022/05/15 13:59:45;;;;;;;5.25;2.45;;;;;;;;;;5098720;28;20210;-60
2022/05/15 14:02:16;;;;;;;2.65;1.90;;;;;;;;;;5098310;28;20335;-60
2022/05/15 14:04:44;;;;;;;4.60;2.30;;;;;;;;;;5097093;28;20207;-60
2022/05/15 14:07:12;;;;;;;3.80;2.10;;;;;;;;;;5097328;28;20202;-60
2022/05/15 14:09:49;;;;;;;4.72;2.45;;;;;;;;;;5096611;28;20204;-64
2022/05/15 14:12:18;;;;;;;2.45;2.03;;;;;;;;;;5094939;28;20230;-60
2022/05/15 14:14:47;;;;;;;2.50;2.00;;;;;;;;;;5095252;28;20266;-60
2022/05/15 14:17:15;;;;;;;4.07;2.30;;;;;;;;;;5096692;28;20204;-60
2022/05/15 14:19:50;;;;;;;2.75;2.03;;;;;;;;;;5095898;28;20230;-61
2022/05/15 14:22:18;;;;;;;2.97;2.20;;;;;;;;;;5095252;28;20223;-60
2022/05/15 14:24:45;;;;;;;3.40;2.10;;;;;;;;;;5094795;28;20214;-60
2022/05/15 14:27:14;;;;;;;3.92;2.22;;;;;;;;;;5094495;28;20199;-60
2022/05/15 14:29:42;;;;;;;3.15;1.80;;;;;;;;;;5095895;28;20204;-60
2022/05/15 14:32:10;;;;;;;2.33;1.70;;;;;;;;;;5094380;28;20200;-60
2022/05/15 14:34:38;;;;;;;2.80;1.80;;;;;;;;;;5093573;28;20200;-61
2022/05/15 14:37:06;;;;;;;4.18;2.13;;;;;;;;;;5094563;28;20208;-60
2022/05/15 14:39:33;;;;;;;3.40;1.95;;;;;;;;;;5094575;28;20686;-61
2022/05/15 14:42:01;;;;;;;3.50;2.13;;;;;;;;;;5095181;28;20238;-60
2022/05/15 14:44:30;;;;;;;3.20;2.08;;;;;;;;;;5095395;28;20253;-61
2022/05/15 14:46:58;;;;;;;4.35;1.80;;;;;;;;;;5095697;28;20498;-61
2022/05/15 14:49:26;;;;;;;2.58;1.88;;;;;;;;;;5094871;28;20215;-61
2022/05/15 14:51:55;;;;;;;3.55;2.20;;;;;;;;;;5094698;28;20191;-60
2022/05/15 14:54:24;;;;;;;4.47;2.42;;;;;;;;;;5095763;28;20200;-61
2022/05/15 14:56:53;;;;;;;2.40;2.20;;;;;;;;;;5097030;28;20238;-60
2022/05/15 14:59:21;;;;;;;2.10;1.90;;;;;;;;;;5096772;28;20572;-60
2022/05/15 15:01:50;;;;;;;4.22;2.33;;;;;;;;;;5096662;28;20748;-61
2022/05/15 15:04:18;;;;;;;3.20;2.03;;;;;;;;;;5095886;28;20200;-60
2022/05/15 15:06:45;;;;;;;3.50;1.92;;;;;;;;;;5095325;28;20214;-60
2022/05/15 15:09:13;;;;;;;4.57;2.03;;;;;;;;;;5096614;28;20204;-60
2022/05/15 15:11:45;;;;;;;3.58;2.00;;;;;;;;;;5096546;28;20218;-60
2022/05/15 15:14:13;;;;;;;4.03;2.20;;;;;;;;;;5097183;28;20203;-60
2022/05/15 15:16:42;;;;;;;3.13;1.90;;;;;;;;;;5096352;28;20211;-60
2022/05/15 15:19:11;;;;;;;2.35;1.92;;;;;;;;;;5096290;28;20204;-62
2022/05/15 15:21:38;;;;;;;5.68;2.30;;;;;;;;;;5095740;28;20259;-61
2022/05/15 15:24:06;;;;;;;4.30;2.30;;;;;;;;;;5096624;28;20208;-61
2022/05/15 15:26:35;;;;;;;3.30;2.10;;;;;;;;;;5096134;28;20218;-60
2022/05/15 15:29:02;;;;;;;3.35;2.20;;;;;;;;;;5096444;28;20777;-61